sensor_id;sensor_type;location;lat;lon;timestamp;pressure;altitude;pressure_sealevel;temperature;humidity
51603;BME280;37954;51.980;5.850;2022-09-01T00:00:25;101828.84;;;16.92;60.96
51603;BME280;37954;51.980;5.850;2022-09-01T00:04:42;101824.59;;;16.85;60.89
51603;BME280;37954;51.980;5.850;2022-09-01T00:08:56;101831.19;;;16.89;61.33
51603;BME280;37954;51.980;5.850;2022-09-01T00:13:09;101809.50;;;16.77;61.41
51603;BME280;37954;51.980;5.850;2022-09-01T00:17:21;101819.78;;;16.75;61.35
51603;BME280;37954;51.980;5.850;2022-09-01T00:21:36;101825.31;;;16.68;61.70
51603;BME280;37954;51.980;5.850;2022-09-01T00:25:49;101821.28;;;16.59;62.06
51603;BME280;37954;51.980;5.850;2022-09-01T00:30:00;101820.09;;;16.55;62.08
51603;BME280;37954;51.980;5.850;2022-09-01T00:34:12;101823.19;;;16.59;62.03
51603;BME280;37954;51.980;5.850;2022-09-01T00:38:25;101820.22;;;16.49;62.17
51603;BME280;37954;51.980;5.850;2022-09-01T00:42:37;101818.78;;;16.46;62.11
51603;BME280;37954;51.980;5.850;2022-09-01T00:46:50;101829.75;;;16.51;62.38
51603;BME280;37954;51.980;5.850;2022-09-01T00:51:06;101814.09;;;16.42;62.22
51603;BME280;37954;51.980;5.850;2022-09-01T00:55:28;101809.97;;;16.39;62.31
51603;BME280;37954;51.980;5.850;2022-09-01T00:59:49;101803.34;;;16.35;62.62
51603;BME280;37954;51.980;5.850;2022-09-01T01:04:04;101813.13;;;16.36;62.57
51603;BME280;37954;51.980;5.850;2022-09-01T01:08:17;101806.44;;;16.27;62.69
51603;BME280;37954;51.980;5.850;2022-09-01T01:12:32;101807.13;;;16.22;62.61
51603;BME280;37954;51.980;5.850;2022-09-01T01:16:48;101801.94;;;16.21;62.75
51603;BME280;37954;51.980;5.850;2022-09-01T01:21:07;101804.88;;;16.19;62.83
51603;BME280;37954;51.980;5.850;2022-09-01T01:29:53;101799.59;;;16.24;62.23
51603;BME280;37954;51.980;5.850;2022-09-01T01:34:05;101797.56;;;16.31;61.87
51603;BME280;37954;51.980;5.850;2022-09-01T01:38:19;101796.50;;;16.32;61.84
51603;BME280;37954;51.980;5.850;2022-09-01T01:42:34;101808.66;;;16.42;61.88
51603;BME280;37954;51.980;5.850;2022-09-01T01:46:51;101802.06;;;16.38;61.63
51603;BME280;37954;51.980;5.850;2022-09-01T01:51:04;101806.78;;;16.42;61.35
51603;BME280;37954;51.980;5.850;2022-09-01T01:55:16;101809.81;;;16.46;61.09
51603;BME280;37954;51.980;5.850;2022-09-01T01:59:30;101810.31;;;16.43;60.66
51603;BME280;37954;51.980;5.850;2022-09-01T02:03:43;101814.09;;;16.53;60.21
51603;BME280;37954;51.980;5.850;2022-09-01T02:07:58;101815.88;;;16.59;59.81
51603;BME280;37954;51.980;5.850;2022-09-01T02:12:12;101805.94;;;16.53;59.54
51603;BME280;37954;51.980;5.850;2022-09-01T02:16:28;101798.88;;;16.52;59.45
51603;BME280;37954;51.980;5.850;2022-09-01T02:20:41;101806.78;;;16.54;59.06
51603;BME280;37954;51.980;5.850;2022-09-01T02:24:53;101807.00;;;16.52;58.84
51603;BME280;37954;51.980;5.850;2022-09-01T02:29:11;101794.72;;;16.50;58.38
51603;BME280;37954;51.980;5.850;2022-09-01T02:33:29;101802.41;;;16.53;57.92
51603;BME280;37954;51.980;5.850;2022-09-01T02:37:41;101800.88;;;16.57;57.72
51603;BME280;37954;51.980;5.850;2022-09-01T02:41:54;101798.63;;;16.54;57.27
51603;BME280;37954;51.980;5.850;2022-09-01T02:46:11;101798.75;;;16.59;57.01
51603;BME280;37954;51.980;5.850;2022-09-01T02:50:24;101810.56;;;16.64;56.87
51603;BME280;37954;51.980;5.850;2022-09-01T02:54:37;101822.13;;;16.60;56.70
51603;BME280;37954;51.980;5.850;2022-09-01T02:58:49;101814.81;;;16.60;56.76
51603;BME280;37954;51.980;5.850;2022-09-01T03:03:00;101804.75;;;16.49;56.92
51603;BME280;37954;51.980;5.850;2022-09-01T03:07:12;101793.44;;;16.41;57.24
51603;BME280;37954;51.980;5.850;2022-09-01T03:11:25;101790.50;;;16.30;57.69
51603;BME280;37954;51.980;5.850;2022-09-01T03:15:39;101811.72;;;16.33;57.54
51603;BME280;37954;51.980;5.850;2022-09-01T03:19:51;101803.94;;;16.25;57.57
51603;BME280;37954;51.980;5.850;2022-09-01T03:24:02;101805.84;;;16.25;57.64
51603;BME280;37954;51.980;5.850;2022-09-01T03:28:15;101817.50;;;16.25;57.58
51603;BME280;37954;51.980;5.850;2022-09-01T03:32:27;101808.41;;;16.20;57.42
51603;BME280;37954;51.980;5.850;2022-09-01T03:36:40;101801.81;;;16.16;57.48
51603;BME280;37954;51.980;5.850;2022-09-01T03:41:06;101811.50;;;16.23;56.83
51603;BME280;37954;51.980;5.850;2022-09-01T03:45:21;101805.56;;;16.15;57.14
51603;BME280;37954;51.980;5.850;2022-09-01T03:49:36;101806.28;;;16.10;57.19
51603;BME280;37954;51.980;5.850;2022-09-01T03:53:52;101791.03;;;15.97;57.17
51603;BME280;37954;51.980;5.850;2022-09-01T03:58:10;101806.63;;;16.02;57.15
51603;BME280;37954;51.980;5.850;2022-09-01T04:02:24;101807.91;;;15.99;57.07
51603;BME280;37954;51.980;5.850;2022-09-01T04:06:42;101791.03;;;15.97;57.34
51603;BME280;37954;51.980;5.850;2022-09-01T04:10:54;101809.91;;;16.04;56.76
51603;BME280;37954;51.980;5.850;2022-09-01T04:15:10;101789.38;;;15.96;56.86
51603;BME280;37954;51.980;5.850;2022-09-01T04:19:25;101771.97;;;15.92;56.44
51603;BME280;37954;51.980;5.850;2022-09-01T04:23:40;101779.28;;;16.04;55.93
51603;BME280;37954;51.980;5.850;2022-09-01T04:27:53;101775.38;;;15.99;55.79
51603;BME280;37954;51.980;5.850;2022-09-01T04:32:08;101802.25;;;16.13;55.62
51603;BME280;37954;51.980;5.850;2022-09-01T04:36:25;101774.31;;;16.00;55.66
51603;BME280;37954;51.980;5.850;2022-09-01T04:40:38;101793.06;;;16.14;55.67
51603;BME280;37954;51.980;5.850;2022-09-01T04:44:52;101791.19;;;16.14;55.26
51603;BME280;37954;51.980;5.850;2022-09-01T04:49:06;101767.00;;;16.01;55.40
51603;BME280;37954;51.980;5.850;2022-09-01T04:53:23;101775.16;;;16.01;55.34
51603;BME280;37954;51.980;5.850;2022-09-01T04:57:41;101779.28;;;16.04;55.20
51603;BME280;37954;51.980;5.850;2022-09-01T05:01:53;101801.66;;;16.11;55.19
51603;BME280;37954;51.980;5.850;2022-09-01T05:06:15;101792.38;;;16.07;55.15
51603;BME280;37954;51.980;5.850;2022-09-01T05:10:32;101796.38;;;16.04;55.30
51603;BME280;37954;51.980;5.850;2022-09-01T05:14:57;101805.78;;;16.01;55.18
51603;BME280;37954;51.980;5.850;2022-09-01T05:19:08;101795.63;;;15.97;55.30
51603;BME280;37954;51.980;5.850;2022-09-01T05:23:25;101804.38;;;15.99;55.32
51603;BME280;37954;51.980;5.850;2022-09-01T05:27:42;101806.72;;;15.95;55.43
51603;BME280;37954;51.980;5.850;2022-09-01T05:32:01;101817.31;;;15.97;55.67
51603;BME280;37954;51.980;5.850;2022-09-01T05:36:22;101817.69;;;16.12;55.49
51603;BME280;37954;51.980;5.850;2022-09-01T05:40:36;101813.13;;;16.24;55.38
51603;BME280;37954;51.980;5.850;2022-09-01T05:44:51;101806.75;;;16.30;55.07
51603;BME280;37954;51.980;5.850;2022-09-01T05:49:04;101819.84;;;17.44;54.24
51603;BME280;37954;51.980;5.850;2022-09-01T05:53:19;101821.66;;;18.84;51.74
51603;BME280;37954;51.980;5.850;2022-09-01T05:57:39;101833.31;;;19.98;49.11
51603;BME280;37954;51.980;5.850;2022-09-01T06:01:53;101824.91;;;20.79;46.50
51603;BME280;37954;51.980;5.850;2022-09-01T06:06:06;101825.81;;;21.47;44.58
51603;BME280;37954;51.980;5.850;2022-09-01T06:10:20;101829.19;;;22.10;42.84
51603;BME280;37954;51.980;5.850;2022-09-01T06:14:33;101826.66;;;22.59;41.89
51603;BME280;37954;51.980;5.850;2022-09-01T06:18:45;101833.41;;;23.07;40.35
51603;BME280;37954;51.980;5.850;2022-09-01T06:23:02;101842.56;;;23.42;39.24
51603;BME280;37954;51.980;5.850;2022-09-01T06:27:14;101846.25;;;23.17;38.84
51603;BME280;37954;51.980;5.850;2022-09-01T06:31:33;101839.22;;;22.70;39.67
51603;BME280;37954;51.980;5.850;2022-09-01T06:35:51;101845.59;;;22.25;39.33
51603;BME280;37954;51.980;5.850;2022-09-01T06:40:06;101840.66;;;22.02;40.26
51603;BME280;37954;51.980;5.850;2022-09-01T06:44:21;101845.59;;;22.00;40.48
51603;BME280;37954;51.980;5.850;2022-09-01T06:48:43;101853.59;;;23.32;39.69
51603;BME280;37954;51.980;5.850;2022-09-01T06:52:58;101854.56;;;23.02;38.92
51603;BME280;37954;51.980;5.850;2022-09-01T06:57:37;101860.94;;;22.31;39.31
51603;BME280;37954;51.980;5.850;2022-09-01T07:02:09;101859.94;;;23.22;38.72
51603;BME280;37954;51.980;5.850;2022-09-01T07:06:48;101860.88;;;24.01;37.84
51603;BME280;37954;51.980;5.850;2022-09-01T07:11:43;101855.63;;;23.70;37.22
51603;BME280;37954;51.980;5.850;2022-09-01T07:16:16;101865.63;;;24.87;36.98
51603;BME280;37954;51.980;5.850;2022-09-01T07:20:54;101861.56;;;26.07;35.47
51603;BME280;37954;51.980;5.850;2022-09-01T07:25:28;101865.03;;;26.78;34.14
51603;BME280;37954;51.980;5.850;2022-09-01T07:30:28;101866.72;;;27.83;32.88
51603;BME280;37954;51.980;5.850;2022-09-01T07:34:42;101874.16;;;28.72;31.46
51603;BME280;37954;51.980;5.850;2022-09-01T07:39:00;101863.75;;;29.17;30.23
51603;BME280;37954;51.980;5.850;2022-09-01T07:43:48;101876.81;;;29.25;29.44
51603;BME280;37954;51.980;5.850;2022-09-01T07:48:22;101871.06;;;29.04;29.53
51603;BME280;37954;51.980;5.850;2022-09-01T07:52:54;101866.63;;;29.52;29.56
51603;BME280;37954;51.980;5.850;2022-09-01T07:57:07;101873.66;;;29.75;28.73
51603;BME280;37954;51.980;5.850;2022-09-01T08:01:22;101871.88;;;29.05;29.11
51603;BME280;37954;51.980;5.850;2022-09-01T08:05:34;101860.13;;;29.56;28.61
51603;BME280;37954;51.980;5.850;2022-09-01T08:09:46;101867.94;;;29.63;28.67
51603;BME280;37954;51.980;5.850;2022-09-01T08:13:59;101867.13;;;29.88;28.29
51603;BME280;37954;51.980;5.850;2022-09-01T08:18:11;101871.16;;;30.34;27.65
51603;BME280;37954;51.980;5.850;2022-09-01T08:22:25;101863.97;;;30.59;27.09
51603;BME280;37954;51.980;5.850;2022-09-01T08:26:47;101865.88;;;30.67;26.95
51603;BME280;37954;51.980;5.850;2022-09-01T08:30:59;101874.06;;;31.01;26.72
51603;BME280;37954;51.980;5.850;2022-09-01T08:35:12;101868.34;;;31.36;26.28
51603;BME280;37954;51.980;5.850;2022-09-01T08:39:24;101876.00;;;31.39;25.82
51603;BME280;37954;51.980;5.850;2022-09-01T08:44:10;101867.91;;;31.25;25.11
51603;BME280;37954;51.980;5.850;2022-09-01T08:48:49;101873.78;;;31.53;25.79
51603;BME280;37954;51.980;5.850;2022-09-01T08:53:46;101876.75;;;32.10;25.11
51603;BME280;37954;51.980;5.850;2022-09-01T08:58:00;101862.34;;;31.96;24.69
51603;BME280;37954;51.980;5.850;2022-09-01T09:02:56;101860.28;;;32.26;23.99
51603;BME280;37954;51.980;5.850;2022-09-01T09:12:04;101858.06;;;33.38;23.35
51603;BME280;37954;51.980;5.850;2022-09-01T09:16:39;101851.09;;;33.19;22.65
51603;BME280;37954;51.980;5.850;2022-09-01T09:20:51;101846.84;;;32.85;22.33
51603;BME280;37954;51.980;5.850;2022-09-01T09:25:15;101843.13;;;32.81;22.55
51603;BME280;37954;51.980;5.850;2022-09-01T09:29:30;101837.34;;;32.41;22.06
51603;BME280;37954;51.980;5.850;2022-09-01T09:33:41;101838.41;;;32.37;22.54
51603;BME280;37954;51.980;5.850;2022-09-01T09:38:23;101840.19;;;32.54;21.92
51603;BME280;37954;51.980;5.850;2022-09-01T09:47:04;101818.16;;;33.22;21.83
51603;BME280;37954;51.980;5.850;2022-09-01T09:51:41;101814.31;;;33.66;20.74
51603;BME280;37954;51.980;5.850;2022-09-01T09:56:03;101812.09;;;33.32;20.27
51603;BME280;37954;51.980;5.850;2022-09-01T10:04:37;101807.72;;;33.06;19.90
51603;BME280;37954;51.980;5.850;2022-09-01T10:08:49;101807.50;;;32.99;20.64
51603;BME280;37954;51.980;5.850;2022-09-01T10:13:00;101796.31;;;33.24;19.77
51603;BME280;37954;51.980;5.850;2022-09-01T10:17:19;101807.34;;;33.32;19.67
51603;BME280;37954;51.980;5.850;2022-09-01T10:21:40;101798.06;;;33.16;19.41
51603;BME280;37954;51.980;5.850;2022-09-01T10:25:56;101793.44;;;33.60;19.11
51603;BME280;37954;51.980;5.850;2022-09-01T10:30:14;101783.84;;;33.45;18.87
51603;BME280;37954;51.980;5.850;2022-09-01T10:34:34;101784.94;;;33.29;19.40
51603;BME280;37954;51.980;5.850;2022-09-01T10:38:47;101780.16;;;33.69;19.29
51603;BME280;37954;51.980;5.850;2022-09-01T10:47:48;101777.09;;;33.86;18.73
51603;BME280;37954;51.980;5.850;2022-09-01T10:52:00;101787.06;;;33.87;18.94
51603;BME280;37954;51.980;5.850;2022-09-01T10:56:23;101786.22;;;33.31;19.09
51603;BME280;37954;51.980;5.850;2022-09-01T11:00:49;101764.53;;;33.25;19.38
51603;BME280;37954;51.980;5.850;2022-09-01T11:05:20;101769.97;;;33.21;19.32
51603;BME280;37954;51.980;5.850;2022-09-01T11:09:35;101765.97;;;33.46;19.25
51603;BME280;37954;51.980;5.850;2022-09-01T11:13:51;101771.13;;;33.32;19.11
51603;BME280;37954;51.980;5.850;2022-09-01T11:18:13;101763.13;;;33.31;19.37
51603;BME280;37954;51.980;5.850;2022-09-01T11:22:40;101759.41;;;33.27;19.59
51603;BME280;37954;51.980;5.850;2022-09-01T11:26:53;101754.88;;;33.34;19.40
51603;BME280;37954;51.980;5.850;2022-09-01T11:35:19;101761.44;;;33.02;19.35
51603;BME280;37954;51.980;5.850;2022-09-01T11:39:54;101753.31;;;32.97;19.73
51603;BME280;37954;51.980;5.850;2022-09-01T11:44:16;101752.72;;;32.91;19.46
51603;BME280;37954;51.980;5.850;2022-09-01T11:48:31;101752.16;;;32.61;19.78
51603;BME280;37954;51.980;5.850;2022-09-01T11:52:53;101745.53;;;32.41;19.45
51603;BME280;37954;51.980;5.850;2022-09-01T11:57:29;101739.28;;;32.69;19.70
51603;BME280;37954;51.980;5.850;2022-09-01T12:01:41;101734.66;;;32.85;19.91
51603;BME280;37954;51.980;5.850;2022-09-01T12:05:58;101739.41;;;32.84;19.87
51603;BME280;37954;51.980;5.850;2022-09-01T12:10:16;101717.97;;;32.73;20.10
51603;BME280;37954;51.980;5.850;2022-09-01T12:14:28;101719.69;;;32.53;19.92
51603;BME280;37954;51.980;5.850;2022-09-01T12:19:00;101727.69;;;32.30;20.19
51603;BME280;37954;51.980;5.850;2022-09-01T12:27:42;101694.16;;;32.02;20.11
51603;BME280;37954;51.980;5.850;2022-09-01T12:31:54;101702.69;;;31.85;20.43
51603;BME280;37954;51.980;5.850;2022-09-01T12:36:35;101712.19;;;31.51;21.05
51603;BME280;37954;51.980;5.850;2022-09-01T12:40:53;101704.31;;;30.91;21.83
51603;BME280;37954;51.980;5.850;2022-09-01T12:45:07;101693.94;;;30.50;22.26
51603;BME280;37954;51.980;5.850;2022-09-01T12:49:32;101698.31;;;30.30;22.31
51603;BME280;37954;51.980;5.850;2022-09-01T12:53:57;101694.38;;;29.75;22.55
51603;BME280;37954;51.980;5.850;2022-09-01T12:58:09;101682.56;;;29.40;22.84
51603;BME280;37954;51.980;5.850;2022-09-01T13:02:32;101693.94;;;29.13;23.22
51603;BME280;37954;51.980;5.850;2022-09-01T13:06:44;101676.00;;;28.93;23.29
51603;BME280;37954;51.980;5.850;2022-09-01T13:11:00;101679.69;;;28.63;23.21
51603;BME280;37954;51.980;5.850;2022-09-01T13:15:13;101676.41;;;28.52;23.09
51603;BME280;37954;51.980;5.850;2022-09-01T13:19:29;101675.59;;;28.52;23.71
51603;BME280;37954;51.980;5.850;2022-09-01T13:23:41;101659.78;;;28.35;23.99
51603;BME280;37954;51.980;5.850;2022-09-01T13:27:52;101656.03;;;28.31;24.04
51603;BME280;37954;51.980;5.850;2022-09-01T13:32:05;101656.66;;;28.28;24.04
51603;BME280;37954;51.980;5.850;2022-09-01T13:36:34;101648.16;;;28.16;24.28
51603;BME280;37954;51.980;5.850;2022-09-01T13:40:58;101635.97;;;28.17;24.29
51603;BME280;37954;51.980;5.850;2022-09-01T13:45:11;101637.31;;;28.19;24.58
51603;BME280;37954;51.980;5.850;2022-09-01T13:49:23;101630.25;;;28.13;24.37
51603;BME280;37954;51.980;5.850;2022-09-01T13:53:55;101637.09;;;28.16;24.37
51603;BME280;37954;51.980;5.850;2022-09-01T13:58:07;101642.84;;;28.28;24.62
51603;BME280;37954;51.980;5.850;2022-09-01T14:02:19;101630.94;;;28.19;24.64
51603;BME280;37954;51.980;5.850;2022-09-01T14:06:31;101627.16;;;28.15;24.51
51603;BME280;37954;51.980;5.850;2022-09-01T14:10:45;101610.97;;;27.91;24.74
51603;BME280;37954;51.980;5.850;2022-09-01T14:14:59;101613.84;;;27.77;24.90
51603;BME280;37954;51.980;5.850;2022-09-01T14:19:30;101621.28;;;27.68;24.55
51603;BME280;37954;51.980;5.850;2022-09-01T14:23:42;101606.31;;;27.60;24.67
51603;BME280;37954;51.980;5.850;2022-09-01T14:27:54;101604.34;;;27.61;24.94
51603;BME280;37954;51.980;5.850;2022-09-01T14:32:07;101602.72;;;27.60;25.21
51603;BME280;37954;51.980;5.850;2022-09-01T14:36:21;101576.31;;;27.45;25.33
51603;BME280;37954;51.980;5.850;2022-09-01T14:40:37;101600.72;;;27.52;25.30
51603;BME280;37954;51.980;5.850;2022-09-01T14:44:49;101599.91;;;27.51;25.40
51603;BME280;37954;51.980;5.850;2022-09-01T14:49:02;101595.91;;;27.35;25.73
51603;BME280;37954;51.980;5.850;2022-09-01T14:53:14;101583.69;;;27.27;25.71
51603;BME280;37954;51.980;5.850;2022-09-01T14:57:26;101575.59;;;27.31;25.80
51603;BME280;37954;51.980;5.850;2022-09-01T15:01:42;101579.56;;;27.16;25.87
51603;BME280;37954;51.980;5.850;2022-09-01T15:05:53;101576.69;;;26.99;25.98
51603;BME280;37954;51.980;5.850;2022-09-01T15:10:07;101562.28;;;26.88;26.08
51603;BME280;37954;51.980;5.850;2022-09-01T15:14:19;101561.16;;;26.89;26.24
51603;BME280;37954;51.980;5.850;2022-09-01T15:18:31;101553.81;;;26.85;26.52
51603;BME280;37954;51.980;5.850;2022-09-01T15:22:43;101563.06;;;27.02;26.57
51603;BME280;37954;51.980;5.850;2022-09-01T15:26:54;101552.53;;;27.04;26.67
51603;BME280;37954;51.980;5.850;2022-09-01T15:31:06;101561.16;;;26.89;27.01
51603;BME280;37954;51.980;5.850;2022-09-01T15:35:19;101544.59;;;26.67;27.11
51603;BME280;37954;51.980;5.850;2022-09-01T15:39:31;101545.84;;;26.61;27.58
51603;BME280;37954;51.980;5.850;2022-09-01T15:43:49;101557.81;;;26.56;27.76
51603;BME280;37954;51.980;5.850;2022-09-01T15:48:00;101543.00;;;26.52;27.90
51603;BME280;37954;51.980;5.850;2022-09-01T15:52:12;101553.31;;;26.60;27.87
51603;BME280;37954;51.980;5.850;2022-09-01T15:56:25;101547.34;;;26.45;27.71
51603;BME280;37954;51.980;5.850;2022-09-01T16:00:37;101542.75;;;26.40;27.90
51603;BME280;37954;51.980;5.850;2022-09-01T16:04:49;101552.13;;;26.39;28.25
51603;BME280;37954;51.980;5.850;2022-09-01T16:09:01;101540.75;;;26.32;27.93
51603;BME280;37954;51.980;5.850;2022-09-01T16:13:12;101538.28;;;26.30;27.86
51603;BME280;37954;51.980;5.850;2022-09-01T16:26:21;101523.69;;;26.02;28.54
51603;BME280;37954;51.980;5.850;2022-09-01T16:30:34;101524.81;;;26.01;28.43
51603;BME280;37954;51.980;5.850;2022-09-01T16:34:46;101519.53;;;25.91;28.44
51603;BME280;37954;51.980;5.850;2022-09-01T16:44:18;101522.00;;;25.79;28.61
51603;BME280;37954;51.980;5.850;2022-09-01T16:48:32;101513.84;;;25.74;28.70
51603;BME280;37954;51.980;5.850;2022-09-01T17:02:06;101510.13;;;25.51;28.84
51603;BME280;37954;51.980;5.850;2022-09-01T17:06:29;101503.09;;;25.45;28.70
51603;BME280;37954;51.980;5.850;2022-09-01T17:15:04;101500.03;;;25.33;29.01
51603;BME280;37954;51.980;5.850;2022-09-01T17:19:20;101506.41;;;25.28;29.22
51603;BME280;37954;51.980;5.850;2022-09-01T17:23:37;101497.16;;;25.11;29.17
51603;BME280;37954;51.980;5.850;2022-09-01T17:28:09;101514.94;;;25.13;29.40
51603;BME280;37954;51.980;5.850;2022-09-01T17:32:52;101508.00;;;25.02;29.39
51603;BME280;37954;51.980;5.850;2022-09-01T17:41:41;101500.97;;;24.77;29.85
51603;BME280;37954;51.980;5.850;2022-09-01T17:46:04;101491.03;;;24.62;29.94
51603;BME280;37954;51.980;5.850;2022-09-01T18:00:05;101515.88;;;24.39;30.60
51603;BME280;37954;51.980;5.850;2022-09-01T18:08:55;101515.38;;;24.13;30.77
51603;BME280;37954;51.980;5.850;2022-09-01T18:13:15;101506.56;;;23.92;31.26
51603;BME280;37954;51.980;5.850;2022-09-01T18:17:51;101507.69;;;23.91;31.57
51603;BME280;37954;51.980;5.850;2022-09-01T18:22:10;101514.22;;;23.95;31.79
51603;BME280;37954;51.980;5.850;2022-09-01T18:26:30;101508.69;;;23.76;31.88
51603;BME280;37954;51.980;5.850;2022-09-01T18:49:23;101519.34;;;23.01;32.88
51603;BME280;37954;51.980;5.850;2022-09-01T18:53:41;101519.13;;;22.92;32.66
51603;BME280;37954;51.980;5.850;2022-09-01T18:58:07;101545.72;;;22.87;33.03
51603;BME280;37954;51.980;5.850;2022-09-01T19:11:58;101553.59;;;22.60;33.31
51603;BME280;37954;51.980;5.850;2022-09-01T19:16:33;101551.44;;;22.51;33.49
51603;BME280;37954;51.980;5.850;2022-09-01T19:25:16;101551.56;;;22.31;33.77
51603;BME280;37954;51.980;5.850;2022-09-01T19:29:51;101544.22;;;22.21;33.71
51603;BME280;37954;51.980;5.850;2022-09-01T19:34:19;101551.66;;;22.16;34.14
51603;BME280;37954;51.980;5.850;2022-09-01T19:38:36;101558.50;;;22.08;34.31
51603;BME280;37954;51.980;5.850;2022-09-01T19:43:00;101548.94;;;22.01;34.22
51603;BME280;37954;51.980;5.850;2022-09-01T19:47:20;101551.44;;;21.92;34.38
51603;BME280;37954;51.980;5.850;2022-09-01T19:51:45;101564.56;;;21.85;34.35
51603;BME280;37954;51.980;5.850;2022-09-01T19:56:22;101574.47;;;21.81;34.79
51603;BME280;37954;51.980;5.850;2022-09-01T20:00:48;101556.97;;;21.67;35.20
51603;BME280;37954;51.980;5.850;2022-09-01T20:05:08;101556.72;;;21.58;35.12
51603;BME280;37954;51.980;5.850;2022-09-01T20:18:36;101554.56;;;21.40;35.67
51603;BME280;37954;51.980;5.850;2022-09-01T20:27:44;101563.59;;;21.25;36.20
51603;BME280;37954;51.980;5.850;2022-09-01T20:32:00;101556.47;;;21.19;36.17
51603;BME280;37954;51.980;5.850;2022-09-01T20:36:18;101563.84;;;21.13;36.31
51603;BME280;37954;51.980;5.850;2022-09-01T20:40:38;101556.47;;;21.09;36.48
51603;BME280;37954;51.980;5.850;2022-09-01T20:44:57;101550.19;;;21.08;36.27
51603;BME280;37954;51.980;5.850;2022-09-01T20:49:10;101546.91;;;21.01;36.32
51603;BME280;37954;51.980;5.850;2022-09-01T20:54:23;101551.28;;;21.02;36.44
51603;BME280;37954;51.980;5.850;2022-09-01T21:02:54;101549.09;;;20.94;36.36
51603;BME280;37954;51.980;5.850;2022-09-01T21:07:19;101553.19;;;20.92;36.46
51603;BME280;37954;51.980;5.850;2022-09-01T21:11:44;101549.38;;;20.88;36.41
51603;BME280;37954;51.980;5.850;2022-09-01T21:16:07;101548.53;;;20.87;36.27
51603;BME280;37954;51.980;5.850;2022-09-01T21:20:45;101550.72;;;20.80;36.45
51603;BME280;37954;51.980;5.850;2022-09-01T21:25:00;101540.34;;;20.72;36.37
51603;BME280;37954;51.980;5.850;2022-09-01T21:29:34;101545.78;;;20.72;36.37
51603;BME280;37954;51.980;5.850;2022-09-01T21:33:48;101548.25;;;20.68;36.47
51603;BME280;37954;51.980;5.850;2022-09-01T21:38:00;101534.03;;;20.61;36.49
51603;BME280;37954;51.980;5.850;2022-09-01T21:42:12;101543.59;;;20.59;36.62
51603;BME280;37954;51.980;5.850;2022-09-01T21:46:24;101537.84;;;20.55;36.50
51603;BME280;37954;51.980;5.850;2022-09-01T21:50:36;101528.53;;;20.46;36.75
51603;BME280;37954;51.980;5.850;2022-09-01T21:54:50;101537.56;;;20.46;36.84
51603;BME280;37954;51.980;5.850;2022-09-01T21:59:01;101527.19;;;20.38;37.05
51603;BME280;37954;51.980;5.850;2022-09-01T22:03:13;101524.66;;;20.32;37.27
51603;BME280;37954;51.980;5.850;2022-09-01T22:07:25;101528.19;;;20.27;37.25
51603;BME280;37954;51.980;5.850;2022-09-01T22:11:39;101516.47;;;20.22;37.40
51603;BME280;37954;51.980;5.850;2022-09-01T22:15:52;101524.91;;;20.20;37.60
51603;BME280;37954;51.980;5.850;2022-09-01T22:20:06;101509.03;;;20.12;37.50
51603;BME280;37954;51.980;5.850;2022-09-01T22:24:19;101514.78;;;20.05;37.59
51603;BME280;37954;51.980;5.850;2022-09-01T22:28:32;101509.00;;;19.97;37.83
51603;BME280;37954;51.980;5.850;2022-09-01T22:32:44;101513.06;;;19.94;38.15
51603;BME280;37954;51.980;5.850;2022-09-01T22:36:56;101518.25;;;19.91;38.01
51603;BME280;37954;51.980;5.850;2022-09-01T22:41:07;101507.59;;;19.84;38.21
51603;BME280;37954;51.980;5.850;2022-09-01T22:45:19;101505.34;;;19.71;38.57
51603;BME280;37954;51.980;5.850;2022-09-01T22:49:31;101502.88;;;19.69;38.48
51603;BME280;37954;51.980;5.850;2022-09-01T22:53:44;101486.22;;;19.66;38.59
51603;BME280;37954;51.980;5.850;2022-09-01T22:57:55;101496.03;;;19.62;38.75
51603;BME280;37954;51.980;5.850;2022-09-01T23:02:08;101498.44;;;19.58;38.77
51603;BME280;37954;51.980;5.850;2022-09-01T23:06:22;101486.19;;;19.56;38.76
51603;BME280;37954;51.980;5.850;2022-09-01T23:10:38;101493.50;;;19.50;38.77
51603;BME280;37954;51.980;5.850;2022-09-01T23:14:50;101499.19;;;19.48;38.97
51603;BME280;37954;51.980;5.850;2022-09-01T23:19:02;101491.81;;;19.44;39.08
51603;BME280;37954;51.980;5.850;2022-09-01T23:23:14;101478.13;;;19.34;39.01
51603;BME280;37954;51.980;5.850;2022-09-01T23:27:25;101481.63;;;19.29;39.32
51603;BME280;37954;51.980;5.850;2022-09-01T23:31:38;101478.88;;;19.24;39.37
51603;BME280;37954;51.980;5.850;2022-09-01T23:35:53;101472.34;;;19.20;39.45
51603;BME280;37954;51.980;5.850;2022-09-01T23:40:06;101477.47;;;19.17;39.57
51603;BME280;37954;51.980;5.850;2022-09-01T23:44:18;101464.06;;;19.10;39.75
51603;BME280;37954;51.980;5.850;2022-09-01T23:48:30;101457.81;;;19.09;39.79
51603;BME280;37954;51.980;5.850;2022-09-01T23:52:42;101457.50;;;19.01;40.01
51603;BME280;37954;51.980;5.850;2022-09-01T23:56:53;101449.28;;;18.96;39.93
